sensor_id;sensor_type;location;lat;lon;timestamp;pressure;altitude;pressure_sealevel;temperature;humidity
20119;BME280;10220;42.716;23.306;2023-05-12T00:01:49;95521.88;;;9.67;100.00
20119;BME280;10220;42.716;23.306;2023-05-12T00:04:15;95513.72;;;9.64;100.00
20119;BME280;10220;42.716;23.306;2023-05-12T00:06:40;95512.59;;;9.73;100.00
20119;BME280;10220;42.716;23.306;2023-05-12T00:09:06;95516.41;;;9.77;100.00
20119;BME280;10220;42.716;23.306;2023-05-12T00:11:32;95512.41;;;9.74;100.00
20119;BME280;10220;42.716;23.306;2023-05-12T00:13:57;95511.41;;;9.75;100.00
20119;BME280;10220;42.716;23.306;2023-05-12T00:16:22;95504.59;;;9.68;100.00
20119;BME280;10220;42.716;23.306;2023-05-12T00:18:48;95504.13;;;9.58;100.00
20119;BME280;10220;42.716;23.306;2023-05-12T00:21:16;95516.91;;;9.66;100.00
20119;BME280;10220;42.716;23.306;2023-05-12T00:23:42;95496.69;;;9.48;100.00
20119;BME280;10220;42.716;23.306;2023-05-12T00:26:07;95516.31;;;9.64;100.00
20119;BME280;10220;42.716;23.306;2023-05-12T00:28:35;95511.69;;;9.59;100.00
20119;BME280;10220;42.716;23.306;2023-05-12T00:31:02;95515.44;;;9.57;100.00
20119;BME280;10220;42.716;23.306;2023-05-12T00:33:28;95514.06;;;9.61;100.00
20119;BME280;10220;42.716;23.306;2023-05-12T00:35:57;95511.47;;;9.54;100.00
20119;BME280;10220;42.716;23.306;2023-05-12T00:38:24;95521.56;;;9.49;100.00
20119;BME280;10220;42.716;23.306;2023-05-12T00:40:50;95518.41;;;9.54;100.00
20119;BME280;10220;42.716;23.306;2023-05-12T00:43:15;95523.03;;;9.58;100.00
20119;BME280;10220;42.716;23.306;2023-05-12T00:45:41;95524.16;;;9.49;100.00
20119;BME280;10220;42.716;23.306;2023-05-12T00:48:06;95528.59;;;9.34;100.00
20119;BME280;10220;42.716;23.306;2023-05-12T00:50:32;95511.16;;;9.16;100.00
20119;BME280;10220;42.716;23.306;2023-05-12T00:52:59;95500.44;;;8.98;100.00
20119;BME280;10220;42.716;23.306;2023-05-12T00:55:25;95494.78;;;8.88;100.00
20119;BME280;10220;42.716;23.306;2023-05-12T00:57:51;95509.41;;;9.02;100.00
20119;BME280;10220;42.716;23.306;2023-05-12T01:00:16;95523.03;;;8.89;100.00
20119;BME280;10220;42.716;23.306;2023-05-12T01:02:43;95521.34;;;8.82;100.00
20119;BME280;10220;42.716;23.306;2023-05-12T01:05:09;95527.56;;;8.87;100.00
20119;BME280;10220;42.716;23.306;2023-05-12T01:07:35;95520.72;;;8.80;100.00
20119;BME280;10220;42.716;23.306;2023-05-12T01:10:01;95517.28;;;8.73;100.00
20119;BME280;10220;42.716;23.306;2023-05-12T01:12:27;95521.09;;;8.77;100.00
20119;BME280;10220;42.716;23.306;2023-05-12T01:14:54;95519.06;;;8.73;100.00
20119;BME280;10220;42.716;23.306;2023-05-12T01:17:24;95522.97;;;8.69;100.00
20119;BME280;10220;42.716;23.306;2023-05-12T01:20:02;95496.25;;;8.41;100.00
20119;BME280;10220;42.716;23.306;2023-05-12T01:22:30;95525.63;;;8.40;100.00
20119;BME280;10220;42.716;23.306;2023-05-12T01:24:58;95522.38;;;8.31;100.00
20119;BME280;10220;42.716;23.306;2023-05-12T01:27:25;95528.13;;;8.33;100.00
20119;BME280;10220;42.716;23.306;2023-05-12T01:29:54;95527.25;;;8.26;100.00
20119;BME280;10220;42.716;23.306;2023-05-12T01:32:21;95521.66;;;8.23;100.00
20119;BME280;10220;42.716;23.306;2023-05-12T01:34:49;95506.91;;;8.17;100.00
20119;BME280;10220;42.716;23.306;2023-05-12T01:37:17;95504.50;;;8.16;100.00
20119;BME280;10220;42.716;23.306;2023-05-12T01:39:43;95514.91;;;8.22;100.00
20119;BME280;10220;42.716;23.306;2023-05-12T01:42:08;95531.28;;;8.15;100.00
20119;BME280;10220;42.716;23.306;2023-05-12T01:44:34;95525.16;;;8.16;100.00
20119;BME280;10220;42.716;23.306;2023-05-12T01:47:02;95522.19;;;8.18;100.00
20119;BME280;10220;42.716;23.306;2023-05-12T01:49:28;95512.47;;;8.06;100.00
20119;BME280;10220;42.716;23.306;2023-05-12T01:51:53;95532.06;;;8.15;100.00
20119;BME280;10220;42.716;23.306;2023-05-12T01:54:18;95500.66;;;7.97;100.00
20119;BME280;10220;42.716;23.306;2023-05-12T01:56:44;95536.50;;;8.07;100.00
20119;BME280;10220;42.716;23.306;2023-05-12T01:59:09;95525.72;;;8.03;100.00
20119;BME280;10220;42.716;23.306;2023-05-12T02:01:35;95518.69;;;7.97;100.00
20119;BME280;10220;42.716;23.306;2023-05-12T02:04:01;95537.19;;;7.86;100.00
20119;BME280;10220;42.716;23.306;2023-05-12T02:06:32;95519.44;;;7.91;100.00
20119;BME280;10220;42.716;23.306;2023-05-12T02:08:57;95504.56;;;7.79;100.00
20119;BME280;10220;42.716;23.306;2023-05-12T02:11:22;95507.69;;;7.74;100.00
20119;BME280;10220;42.716;23.306;2023-05-12T02:13:48;95516.47;;;7.65;100.00
20119;BME280;10220;42.716;23.306;2023-05-12T02:16:13;95522.78;;;7.77;100.00
20119;BME280;10220;42.716;23.306;2023-05-12T02:18:39;95506.72;;;7.75;100.00
20119;BME280;10220;42.716;23.306;2023-05-12T02:21:04;95522.50;;;7.72;100.00
20119;BME280;10220;42.716;23.306;2023-05-12T02:23:30;95520.31;;;7.69;100.00
20119;BME280;10220;42.716;23.306;2023-05-12T02:25:55;95517.13;;;7.67;100.00
20119;BME280;10220;42.716;23.306;2023-05-12T02:28:21;95504.63;;;7.57;100.00
20119;BME280;10220;42.716;23.306;2023-05-12T02:30:48;95513.28;;;7.63;100.00
20119;BME280;10220;42.716;23.306;2023-05-12T02:33:14;95509.44;;;7.59;100.00
20119;BME280;10220;42.716;23.306;2023-05-12T02:35:40;95509.72;;;7.79;100.00
20119;BME280;10220;42.716;23.306;2023-05-12T02:38:05;95510.72;;;7.63;100.00
20119;BME280;10220;42.716;23.306;2023-05-12T02:40:30;95521.09;;;7.70;100.00
20119;BME280;10220;42.716;23.306;2023-05-12T02:42:56;95511.94;;;7.53;100.00
20119;BME280;10220;42.716;23.306;2023-05-12T02:45:21;95508.91;;;7.50;100.00
20119;BME280;10220;42.716;23.306;2023-05-12T02:47:47;95512.09;;;7.52;100.00
20119;BME280;10220;42.716;23.306;2023-05-12T02:50:13;95514.06;;;7.50;100.00
20119;BME280;10220;42.716;23.306;2023-05-12T02:52:38;95511.22;;;7.45;100.00
20119;BME280;10220;42.716;23.306;2023-05-12T02:55:04;95510.84;;;7.48;100.00
20119;BME280;10220;42.716;23.306;2023-05-12T02:57:29;95495.56;;;7.46;100.00
20119;BME280;10220;42.716;23.306;2023-05-12T03:00:02;95517.69;;;7.41;100.00
20119;BME280;10220;42.716;23.306;2023-05-12T03:02:35;95516.81;;;7.48;100.00
20119;BME280;10220;42.716;23.306;2023-05-12T03:05:01;95520.19;;;7.49;100.00
20119;BME280;10220;42.716;23.306;2023-05-12T03:07:26;95516.63;;;7.50;100.00
20119;BME280;10220;42.716;23.306;2023-05-12T03:09:52;95521.78;;;7.50;100.00
20119;BME280;10220;42.716;23.306;2023-05-12T03:12:18;95512.72;;;7.39;100.00
20119;BME280;10220;42.716;23.306;2023-05-12T03:14:44;95517.34;;;7.58;100.00
20119;BME280;10220;42.716;23.306;2023-05-12T03:17:09;95535.22;;;7.59;100.00
20119;BME280;10220;42.716;23.306;2023-05-12T03:19:35;95517.09;;;7.53;100.00
20119;BME280;10220;42.716;23.306;2023-05-12T03:22:00;95505.00;;;7.54;100.00
20119;BME280;10220;42.716;23.306;2023-05-12T03:24:27;95520.19;;;7.63;100.00
20119;BME280;10220;42.716;23.306;2023-05-12T03:26:53;95523.41;;;7.65;100.00
20119;BME280;10220;42.716;23.306;2023-05-12T03:29:19;95532.59;;;7.67;100.00
20119;BME280;10220;42.716;23.306;2023-05-12T03:31:44;95505.59;;;7.56;100.00
20119;BME280;10220;42.716;23.306;2023-05-12T03:34:10;95533.97;;;7.70;100.00
20119;BME280;10220;42.716;23.306;2023-05-12T03:36:35;95529.44;;;7.57;100.00
20119;BME280;10220;42.716;23.306;2023-05-12T03:39:01;95538.81;;;7.73;100.00
20119;BME280;10220;42.716;23.306;2023-05-12T03:41:27;95529.28;;;7.73;100.00
20119;BME280;10220;42.716;23.306;2023-05-12T03:44:13;95535.25;;;7.74;100.00
20119;BME280;10220;42.716;23.306;2023-05-12T03:46:38;95539.31;;;7.68;100.00
20119;BME280;10220;42.716;23.306;2023-05-12T03:49:04;95536.31;;;7.79;100.00
20119;BME280;10220;42.716;23.306;2023-05-12T03:51:29;95528.81;;;7.70;100.00
20119;BME280;10220;42.716;23.306;2023-05-12T03:53:55;95541.38;;;7.73;100.00
20119;BME280;10220;42.716;23.306;2023-05-12T03:56:20;95539.00;;;7.86;100.00
20119;BME280;10220;42.716;23.306;2023-05-12T03:58:48;95526.59;;;7.67;100.00
20119;BME280;10220;42.716;23.306;2023-05-12T04:01:14;95542.81;;;7.75;100.00
20119;BME280;10220;42.716;23.306;2023-05-12T04:03:39;95538.81;;;7.73;100.00
20119;BME280;10220;42.716;23.306;2023-05-12T04:06:07;95545.91;;;7.85;100.00
20119;BME280;10220;42.716;23.306;2023-05-12T04:08:33;95546.34;;;7.74;100.00
20119;BME280;10220;42.716;23.306;2023-05-12T04:10:59;95541.38;;;7.73;100.00
20119;BME280;10220;42.716;23.306;2023-05-12T04:13:28;95556.88;;;7.87;100.00
20119;BME280;10220;42.716;23.306;2023-05-12T04:15:56;95544.16;;;7.86;100.00
20119;BME280;10220;42.716;23.306;2023-05-12T04:18:22;95554.38;;;7.94;100.00
20119;BME280;10220;42.716;23.306;2023-05-12T04:20:48;95548.41;;;7.93;100.00
20119;BME280;10220;42.716;23.306;2023-05-12T04:23:14;95557.47;;;8.04;100.00
20119;BME280;10220;42.716;23.306;2023-05-12T04:25:40;95545.66;;;8.09;100.00
20119;BME280;10220;42.716;23.306;2023-05-12T04:28:09;95555.09;;;8.17;100.00
20119;BME280;10220;42.716;23.306;2023-05-12T04:30:34;95561.69;;;8.19;100.00
20119;BME280;10220;42.716;23.306;2023-05-12T04:33:00;95557.16;;;8.21;100.00
20119;BME280;10220;42.716;23.306;2023-05-12T04:35:26;95554.56;;;8.07;100.00
20119;BME280;10220;42.716;23.306;2023-05-12T04:37:52;95550.22;;;8.21;100.00
20119;BME280;10220;42.716;23.306;2023-05-12T04:40:17;95554.50;;;8.15;100.00
20119;BME280;10220;42.716;23.306;2023-05-12T04:42:42;95557.06;;;8.29;100.00
20119;BME280;10220;42.716;23.306;2023-05-12T04:45:08;95551.13;;;8.28;100.00
20119;BME280;10220;42.716;23.306;2023-05-12T04:47:34;95565.28;;;8.18;100.00
20119;BME280;10220;42.716;23.306;2023-05-12T04:49:59;95563.84;;;8.16;100.00
20119;BME280;10220;42.716;23.306;2023-05-12T04:52:25;95557.56;;;8.10;100.00
20119;BME280;10220;42.716;23.306;2023-05-12T04:54:51;95560.00;;;8.12;100.00
20119;BME280;10220;42.716;23.306;2023-05-12T04:57:16;95557.94;;;8.07;100.00
20119;BME280;10220;42.716;23.306;2023-05-12T04:59:42;95550.75;;;8.03;100.00
20119;BME280;10220;42.716;23.306;2023-05-12T05:02:08;95564.34;;;8.11;100.00
20119;BME280;10220;42.716;23.306;2023-05-12T05:04:33;95562.91;;;8.09;100.00
20119;BME280;10220;42.716;23.306;2023-05-12T05:06:59;95554.97;;;8.10;100.00
20119;BME280;10220;42.716;23.306;2023-05-12T05:09:24;95562.72;;;8.10;100.00
20119;BME280;10220;42.716;23.306;2023-05-12T05:11:49;95561.09;;;8.17;100.00
20119;BME280;10220;42.716;23.306;2023-05-12T05:14:15;95556.53;;;8.19;100.00
20119;BME280;10220;42.716;23.306;2023-05-12T05:16:40;95550.81;;;8.09;100.00
20119;BME280;10220;42.716;23.306;2023-05-12T05:19:06;95575.03;;;8.08;100.00
20119;BME280;10220;42.716;23.306;2023-05-12T05:21:31;95524.66;;;7.69;100.00
20119;BME280;10220;42.716;23.306;2023-05-12T05:23:58;95557.47;;;8.04;100.00
20119;BME280;10220;42.716;23.306;2023-05-12T05:26:24;95553.13;;;8.04;100.00
20119;BME280;10220;42.716;23.306;2023-05-12T05:28:49;95570.75;;;8.01;100.00
20119;BME280;10220;42.716;23.306;2023-05-12T05:31:19;95576.97;;;8.06;100.00
20119;BME280;10220;42.716;23.306;2023-05-12T05:33:48;95579.84;;;8.25;100.00
20119;BME280;10220;42.716;23.306;2023-05-12T05:36:13;95571.13;;;8.26;100.00
20119;BME280;10220;42.716;23.306;2023-05-12T05:38:39;95572.56;;;8.29;100.00
20119;BME280;10220;42.716;23.306;2023-05-12T05:41:06;95573.34;;;8.29;100.00
20119;BME280;10220;42.716;23.306;2023-05-12T05:43:32;95562.50;;;8.19;100.00
20119;BME280;10220;42.716;23.306;2023-05-12T05:45:57;95579.66;;;8.27;100.00
20119;BME280;10220;42.716;23.306;2023-05-12T05:48:23;95568.25;;;8.36;100.00
20119;BME280;10220;42.716;23.306;2023-05-12T05:50:50;95565.59;;;8.44;100.00
20119;BME280;10220;42.716;23.306;2023-05-12T05:53:16;95572.19;;;8.32;100.00
20119;BME280;10220;42.716;23.306;2023-05-12T05:55:45;95566.50;;;8.36;100.00
20119;BME280;10220;42.716;23.306;2023-05-12T05:58:14;95568.53;;;8.41;100.00
20119;BME280;10220;42.716;23.306;2023-05-12T06:00:40;95598.81;;;8.47;100.00
20119;BME280;10220;42.716;23.306;2023-05-12T06:03:06;95580.91;;;8.45;100.00
20119;BME280;10220;42.716;23.306;2023-05-12T06:05:32;95568.81;;;8.46;100.00
20119;BME280;10220;42.716;23.306;2023-05-12T06:07:57;95572.25;;;8.53;100.00
20119;BME280;10220;42.716;23.306;2023-05-12T06:10:23;95590.00;;;8.56;100.00
20119;BME280;10220;42.716;23.306;2023-05-12T06:12:48;95591.47;;;8.65;100.00
20119;BME280;10220;42.716;23.306;2023-05-12T06:15:14;95584.09;;;8.62;100.00
20119;BME280;10220;42.716;23.306;2023-05-12T06:17:40;95596.09;;;8.69;100.00
20119;BME280;10220;42.716;23.306;2023-05-12T06:20:09;95593.88;;;8.66;100.00
20119;BME280;10220;42.716;23.306;2023-05-12T06:22:36;95589.69;;;8.65;100.00
20119;BME280;10220;42.716;23.306;2023-05-12T06:25:03;95600.78;;;8.80;100.00
20119;BME280;10220;42.716;23.306;2023-05-12T06:30:55;95577.63;;;8.86;100.00
20119;BME280;10220;42.716;23.306;2023-05-12T06:33:23;95595.78;;;8.93;100.00
20119;BME280;10220;42.716;23.306;2023-05-12T06:35:48;95599.72;;;9.10;100.00
20119;BME280;10220;42.716;23.306;2023-05-12T06:38:14;95603.94;;;9.11;100.00
20119;BME280;10220;42.716;23.306;2023-05-12T06:40:40;95593.25;;;8.99;100.00
20119;BME280;10220;42.716;23.306;2023-05-12T06:43:08;95596.66;;;9.00;100.00
20119;BME280;10220;42.716;23.306;2023-05-12T06:45:34;95612.75;;;9.02;100.00
20119;BME280;10220;42.716;23.306;2023-05-12T06:47:59;95600.34;;;8.91;100.00
20119;BME280;10220;42.716;23.306;2023-05-12T06:50:25;95593.19;;;8.93;100.00
20119;BME280;10220;42.716;23.306;2023-05-12T06:52:53;95604.22;;;9.01;100.00
20119;BME280;10220;42.716;23.306;2023-05-12T06:55:19;95621.75;;;9.06;100.00
20119;BME280;10220;42.716;23.306;2023-05-12T06:57:44;95608.03;;;9.05;100.00
20119;BME280;10220;42.716;23.306;2023-05-12T07:00:13;95606.13;;;9.14;100.00
20119;BME280;10220;42.716;23.306;2023-05-12T07:02:46;95611.25;;;9.28;100.00
20119;BME280;10220;42.716;23.306;2023-05-12T07:05:12;95606.16;;;9.34;100.00
20119;BME280;10220;42.716;23.306;2023-05-12T07:07:37;95608.97;;;9.39;100.00
20119;BME280;10220;42.716;23.306;2023-05-12T07:10:03;95596.97;;;9.32;100.00
20119;BME280;10220;42.716;23.306;2023-05-12T07:12:28;95619.56;;;9.44;100.00
20119;BME280;10220;42.716;23.306;2023-05-12T07:14:53;95619.63;;;9.30;100.00
20119;BME280;10220;42.716;23.306;2023-05-12T07:17:22;95602.38;;;9.16;100.00
20119;BME280;10220;42.716;23.306;2023-05-12T07:19:47;95619.13;;;9.41;100.00
20119;BME280;10220;42.716;23.306;2023-05-12T07:22:13;95611.03;;;9.44;100.00
20119;BME280;10220;42.716;23.306;2023-05-12T07:24:38;95604.97;;;9.58;100.00
20119;BME280;10220;42.716;23.306;2023-05-12T07:27:04;95619.75;;;9.64;100.00
20119;BME280;10220;42.716;23.306;2023-05-12T07:29:30;95603.22;;;9.58;100.00
20119;BME280;10220;42.716;23.306;2023-05-12T07:31:55;95619.19;;;9.68;100.00
20119;BME280;10220;42.716;23.306;2023-05-12T07:34:21;95615.38;;;9.43;100.00
20119;BME280;10220;42.716;23.306;2023-05-12T07:36:46;95624.19;;;9.49;100.00
20119;BME280;10220;42.716;23.306;2023-05-12T07:39:11;95609.53;;;9.56;100.00
20119;BME280;10220;42.716;23.306;2023-05-12T07:41:39;95599.56;;;9.32;100.00
20119;BME280;10220;42.716;23.306;2023-05-12T07:44:05;95625.00;;;9.49;100.00
20119;BME280;10220;42.716;23.306;2023-05-12T07:46:31;95631.66;;;9.37;100.00
20119;BME280;10220;42.716;23.306;2023-05-12T07:48:56;95626.75;;;9.28;100.00
20119;BME280;10220;42.716;23.306;2023-05-12T07:51:22;95627.56;;;9.29;100.00
20119;BME280;10220;42.716;23.306;2023-05-12T07:53:47;95619.94;;;9.21;100.00
20119;BME280;10220;42.716;23.306;2023-05-12T07:56:13;95620.00;;;9.27;100.00
20119;BME280;10220;42.716;23.306;2023-05-12T07:58:39;95607.19;;;9.40;100.00
20119;BME280;10220;42.716;23.306;2023-05-12T08:01:04;95603.00;;;9.60;100.00
20119;BME280;10220;42.716;23.306;2023-05-12T08:03:32;95599.84;;;9.64;100.00
20119;BME280;10220;42.716;23.306;2023-05-12T08:05:57;95611.16;;;9.84;100.00
20119;BME280;10220;42.716;23.306;2023-05-12T08:08:22;95593.38;;;9.75;100.00
20119;BME280;10220;42.716;23.306;2023-05-12T08:10:48;95592.66;;;10.08;100.00
20119;BME280;10220;42.716;23.306;2023-05-12T08:13:13;95591.97;;;10.27;100.00
20119;BME280;10220;42.716;23.306;2023-05-12T08:15:39;95605.56;;;10.69;100.00
20119;BME280;10220;42.716;23.306;2023-05-12T08:18:04;95603.53;;;10.64;100.00
20119;BME280;10220;42.716;23.306;2023-05-12T08:20:30;95607.78;;;10.78;100.00
20119;BME280;10220;42.716;23.306;2023-05-12T08:22:56;95620.22;;;10.96;100.00
20119;BME280;10220;42.716;23.306;2023-05-12T08:25:21;95608.16;;;10.69;100.00
20119;BME280;10220;42.716;23.306;2023-05-12T08:27:47;95621.63;;;10.98;100.00
20119;BME280;10220;42.716;23.306;2023-05-12T08:30:13;95609.25;;;10.94;100.00
20119;BME280;10220;42.716;23.306;2023-05-12T08:32:38;95621.41;;;10.93;100.00
20119;BME280;10220;42.716;23.306;2023-05-12T08:35:04;95621.97;;;10.82;100.00
20119;BME280;10220;42.716;23.306;2023-05-12T08:37:30;95617.44;;;10.91;100.00
20119;BME280;10220;42.716;23.306;2023-05-12T08:39:56;95598.19;;;10.72;100.00
20119;BME280;10220;42.716;23.306;2023-05-12T08:45:05;95623.78;;;10.82;100.00
20119;BME280;10220;42.716;23.306;2023-05-12T08:47:32;95624.22;;;10.98;100.00
20119;BME280;10220;42.716;23.306;2023-05-12T08:50:00;95618.28;;;11.11;100.00
20119;BME280;10220;42.716;23.306;2023-05-12T08:52:28;95622.50;;;11.12;100.00
20119;BME280;10220;42.716;23.306;2023-05-12T08:54:54;95623.88;;;11.08;100.00
20119;BME280;10220;42.716;23.306;2023-05-12T08:57:21;95613.13;;;11.17;100.00
20119;BME280;10220;42.716;23.306;2023-05-12T08:59:47;95620.31;;;11.21;100.00
20119;BME280;10220;42.716;23.306;2023-05-12T09:02:14;95623.91;;;11.33;100.00
20119;BME280;10220;42.716;23.306;2023-05-12T09:04:41;95620.94;;;11.30;100.00
20119;BME280;10220;42.716;23.306;2023-05-12T09:07:07;95604.34;;;11.12;100.00
20119;BME280;10220;42.716;23.306;2023-05-12T09:09:35;95593.97;;;11.12;100.00
20119;BME280;10220;42.716;23.306;2023-05-12T09:12:02;95597.94;;;11.08;100.00
20119;BME280;10220;42.716;23.306;2023-05-12T09:14:33;95603.50;;;11.05;100.00
20119;BME280;10220;42.716;23.306;2023-05-12T09:17:02;95617.50;;;11.23;100.00
20119;BME280;10220;42.716;23.306;2023-05-12T09:19:28;95601.16;;;11.22;100.00
20119;BME280;10220;42.716;23.306;2023-05-12T09:21:54;95598.00;;;11.33;100.00
20119;BME280;10220;42.716;23.306;2023-05-12T09:24:20;95609.22;;;11.47;100.00
20119;BME280;10220;42.716;23.306;2023-05-12T09:26:51;95607.84;;;11.57;100.00
20119;BME280;10220;42.716;23.306;2023-05-12T09:29:17;95595.47;;;11.53;100.00
20119;BME280;10220;42.716;23.306;2023-05-12T09:31:54;95585.91;;;11.66;100.00
20119;BME280;10220;42.716;23.306;2023-05-12T09:34:35;95603.25;;;11.59;100.00
20119;BME280;10220;42.716;23.306;2023-05-12T09:37:04;95589.69;;;11.57;100.00
20119;BME280;10220;42.716;23.306;2023-05-12T09:39:30;95601.66;;;11.71;100.00
20119;BME280;10220;42.716;23.306;2023-05-12T09:41:56;95601.84;;;11.63;100.00
20119;BME280;10220;42.716;23.306;2023-05-12T09:44:23;95604.47;;;11.82;100.00
20119;BME280;10220;42.716;23.306;2023-05-12T09:46:49;95606.06;;;11.77;100.00
20119;BME280;10220;42.716;23.306;2023-05-12T09:49:23;95610.47;;;11.83;100.00
20119;BME280;10220;42.716;23.306;2023-05-12T09:51:55;95610.44;;;11.96;100.00
20119;BME280;10220;42.716;23.306;2023-05-12T09:54:28;95595.28;;;11.86;100.00
20119;BME280;10220;42.716;23.306;2023-05-12T09:56:57;95599.69;;;11.99;100.00
20119;BME280;10220;42.716;23.306;2023-05-12T09:59:29;95582.69;;;12.03;100.00
20119;BME280;10220;42.716;23.306;2023-05-12T10:02:01;95593.84;;;12.23;100.00
20119;BME280;10220;42.716;23.306;2023-05-12T10:04:36;95598.03;;;12.36;100.00
20119;BME280;10220;42.716;23.306;2023-05-12T10:07:09;95570.25;;;12.30;100.00
20119;BME280;10220;42.716;23.306;2023-05-12T10:09:37;95567.22;;;12.40;100.00
20119;BME280;10220;42.716;23.306;2023-05-12T10:12:07;95591.97;;;12.55;100.00
20119;BME280;10220;42.716;23.306;2023-05-12T10:14:34;95594.31;;;12.76;100.00
20119;BME280;10220;42.716;23.306;2023-05-12T10:17:00;95579.28;;;12.97;100.00
20119;BME280;10220;42.716;23.306;2023-05-12T10:19:27;95593.47;;;13.01;100.00
20119;BME280;10220;42.716;23.306;2023-05-12T10:21:55;95577.44;;;13.04;100.00
20119;BME280;10220;42.716;23.306;2023-05-12T10:24:24;95589.47;;;12.99;100.00
20119;BME280;10220;42.716;23.306;2023-05-12T10:26:52;95563.13;;;13.26;100.00
20119;BME280;10220;42.716;23.306;2023-05-12T10:29:18;95581.78;;;13.48;100.00
20119;BME280;10220;42.716;23.306;2023-05-12T10:31:44;95584.78;;;13.51;100.00
20119;BME280;10220;42.716;23.306;2023-05-12T10:34:15;95576.31;;;13.55;100.00
20119;BME280;10220;42.716;23.306;2023-05-12T10:36:47;95566.22;;;13.41;100.00
20119;BME280;10220;42.716;23.306;2023-05-12T10:39:13;95575.09;;;13.58;100.00
20119;BME280;10220;42.716;23.306;2023-05-12T10:41:40;95573.94;;;13.54;100.00
20119;BME280;10220;42.716;23.306;2023-05-12T10:44:12;95546.19;;;13.66;100.00
20119;BME280;10220;42.716;23.306;2023-05-12T10:52:38;95556.31;;;14.29;100.00
20119;BME280;10220;42.716;23.306;2023-05-12T10:57:48;95558.06;;;14.70;100.00
20119;BME280;10220;42.716;23.306;2023-05-12T11:00:21;95562.38;;;14.94;99.43
20119;BME280;10220;42.716;23.306;2023-05-12T11:02:49;95552.13;;;15.11;92.48
20119;BME280;10220;42.716;23.306;2023-05-12T11:05:15;95550.38;;;14.93;88.54
20119;BME280;10220;42.716;23.306;2023-05-12T11:07:46;95571.88;;;15.07;88.71
20119;BME280;10220;42.716;23.306;2023-05-12T11:10:13;95562.34;;;14.83;84.23
20119;BME280;10220;42.716;23.306;2023-05-12T11:12:38;95564.34;;;14.81;88.25
20119;BME280;10220;42.716;23.306;2023-05-12T11:15:06;95553.78;;;14.76;88.99
20119;BME280;10220;42.716;23.306;2023-05-12T11:17:32;95562.09;;;14.49;86.84
20119;BME280;10220;42.716;23.306;2023-05-12T11:19:58;95571.16;;;14.64;90.49
20119;BME280;10220;42.716;23.306;2023-05-12T11:22:25;95572.47;;;14.55;91.94
20119;BME280;10220;42.716;23.306;2023-05-12T11:24:50;95561.53;;;14.65;92.23
20119;BME280;10220;42.716;23.306;2023-05-12T11:27:18;95563.91;;;14.30;91.24
20119;BME280;10220;42.716;23.306;2023-05-12T11:29:53;95570.63;;;14.20;90.82
20119;BME280;10220;42.716;23.306;2023-05-12T11:32:19;95576.06;;;14.18;87.81
20119;BME280;10220;42.716;23.306;2023-05-12T11:34:44;95583.44;;;14.21;80.05
20119;BME280;10220;42.716;23.306;2023-05-12T11:37:11;95564.69;;;14.31;80.28
20119;BME280;10220;42.716;23.306;2023-05-12T11:39:36;95573.06;;;14.15;87.06
20119;BME280;10220;42.716;23.306;2023-05-12T11:42:03;95580.59;;;14.23;90.21
20119;BME280;10220;42.716;23.306;2023-05-12T11:44:30;95570.50;;;14.33;90.58
20119;BME280;10220;42.716;23.306;2023-05-12T11:47:00;95569.44;;;14.40;89.67
20119;BME280;10220;42.716;23.306;2023-05-12T11:49:27;95575.59;;;14.46;88.24
20119;BME280;10220;42.716;23.306;2023-05-12T11:51:59;95559.94;;;14.46;89.57
20119;BME280;10220;42.716;23.306;2023-05-12T11:54:27;95555.66;;;14.15;89.75
20119;BME280;10220;42.716;23.306;2023-05-12T11:56:53;95568.19;;;14.25;85.08
20119;BME280;10220;42.716;23.306;2023-05-12T11:59:33;95568.19;;;14.25;82.61
20119;BME280;10220;42.716;23.306;2023-05-12T12:02:00;95560.63;;;14.17;77.64
20119;BME280;10220;42.716;23.306;2023-05-12T12:04:44;95558.91;;;14.29;82.92
20119;BME280;10220;42.716;23.306;2023-05-12T12:07:09;95573.69;;;14.53;80.84
20119;BME280;10220;42.716;23.306;2023-05-12T12:09:37;95573.41;;;14.61;83.75
20119;BME280;10220;42.716;23.306;2023-05-12T12:12:05;95556.47;;;14.52;85.34
20119;BME280;10220;42.716;23.306;2023-05-12T12:14:32;95567.41;;;14.60;82.11
20119;BME280;10220;42.716;23.306;2023-05-12T12:16:58;95566.69;;;14.53;83.61
20119;BME280;10220;42.716;23.306;2023-05-12T12:19:24;95567.47;;;14.54;87.40
20119;BME280;10220;42.716;23.306;2023-05-12T12:21:50;95569.44;;;14.40;89.82
20119;BME280;10220;42.716;23.306;2023-05-12T12:24:16;95581.66;;;14.58;91.98
20119;BME280;10220;42.716;23.306;2023-05-12T12:26:42;95566.16;;;14.63;90.50
20119;BME280;10220;42.716;23.306;2023-05-12T12:29:07;95572.31;;;14.50;87.45
20119;BME280;10220;42.716;23.306;2023-05-12T12:31:33;95564.00;;;14.42;89.87
20119;BME280;10220;42.716;23.306;2023-05-12T12:34:00;95573.91;;;14.51;90.90
20119;BME280;10220;42.716;23.306;2023-05-12T12:36:26;95569.44;;;14.40;93.34
20119;BME280;10220;42.716;23.306;2023-05-12T12:38:51;95571.38;;;14.45;94.16
20119;BME280;10220;42.716;23.306;2023-05-12T12:41:17;95568.13;;;14.49;91.41
20119;BME280;10220;42.716;23.306;2023-05-12T12:43:42;95570.59;;;14.44;90.95
20119;BME280;10220;42.716;23.306;2023-05-12T12:46:08;95553.50;;;14.48;90.65
20119;BME280;10220;42.716;23.306;2023-05-12T12:48:34;95569.44;;;14.40;89.98
20119;BME280;10220;42.716;23.306;2023-05-12T12:51:00;95574.28;;;14.12;91.87
20119;BME280;10220;42.716;23.306;2023-05-12T12:53:26;95567.63;;;14.16;93.19
20119;BME280;10220;42.716;23.306;2023-05-12T12:55:52;95554.09;;;14.08;94.05
20119;BME280;10220;42.716;23.306;2023-05-12T12:58:17;95564.41;;;14.21;96.79
20119;BME280;10220;42.716;23.306;2023-05-12T13:00:43;95565.59;;;14.43;95.08